sensor_id;sensor_type;location;lat;lon;timestamp;temperature;humidity
43227;DHT22;28839;52.404;9.808;2022-11-11T00:03:55;9.30;99.90
43227;DHT22;28839;52.404;9.808;2022-11-11T00:10:51;8.80;99.90
43227;DHT22;28839;52.404;9.808;2022-11-11T00:17:46;8.80;99.90
43227;DHT22;28839;52.404;9.808;2022-11-11T00:24:58;8.70;99.90
43227;DHT22;28839;52.404;9.808;2022-11-11T00:32:01;8.50;99.90
43227;DHT22;28839;52.404;9.808;2022-11-11T00:39:10;8.40;99.90
43227;DHT22;28839;52.404;9.808;2022-11-11T00:46:04;8.20;99.90
43227;DHT22;28839;52.404;9.808;2022-11-11T00:53:18;8.10;99.90
43227;DHT22;28839;52.404;9.808;2022-11-11T01:00:14;7.90;99.90
43227;DHT22;28839;52.404;9.808;2022-11-11T01:07:08;7.80;99.90
43227;DHT22;28839;52.404;9.808;2022-11-11T01:14:01;7.80;99.90
43227;DHT22;28839;52.404;9.808;2022-11-11T01:21:01;7.90;99.90
43227;DHT22;28839;52.404;9.808;2022-11-11T01:27:56;7.70;99.90
43227;DHT22;28839;52.404;9.808;2022-11-11T01:34:50;7.70;99.90
43227;DHT22;28839;52.404;9.808;2022-11-11T01:41:45;7.60;99.90
43227;DHT22;28839;52.404;9.808;2022-11-11T01:48:42;7.50;99.90
43227;DHT22;28839;52.404;9.808;2022-11-11T01:55:53;7.30;99.90
43227;DHT22;28839;52.404;9.808;2022-11-11T02:02:52;7.30;99.90
43227;DHT22;28839;52.404;9.808;2022-11-11T02:09:47;7.20;99.90
43227;DHT22;28839;52.404;9.808;2022-11-11T02:16:43;6.90;99.90
43227;DHT22;28839;52.404;9.808;2022-11-11T02:23:42;7.20;99.90
43227;DHT22;28839;52.404;9.808;2022-11-11T02:30:38;7.10;99.90
43227;DHT22;28839;52.404;9.808;2022-11-11T02:37:32;7.00;99.90
43227;DHT22;28839;52.404;9.808;2022-11-11T02:44:26;6.90;99.90
43227;DHT22;28839;52.404;9.808;2022-11-11T02:51:21;6.90;99.90
43227;DHT22;28839;52.404;9.808;2022-11-11T02:58:16;6.80;99.90
43227;DHT22;28839;52.404;9.808;2022-11-11T03:05:09;6.90;99.90
43227;DHT22;28839;52.404;9.808;2022-11-11T03:12:05;6.90;99.90
43227;DHT22;28839;52.404;9.808;2022-11-11T03:18:59;7.00;99.90
43227;DHT22;28839;52.404;9.808;2022-11-11T03:25:53;7.50;99.90
43227;DHT22;28839;52.404;9.808;2022-11-11T03:32:48;7.70;99.90
43227;DHT22;28839;52.404;9.808;2022-11-11T03:39:42;7.60;99.90
43227;DHT22;28839;52.404;9.808;2022-11-11T03:46:35;7.70;99.90
43227;DHT22;28839;52.404;9.808;2022-11-11T03:53:31;8.00;99.90
43227;DHT22;28839;52.404;9.808;2022-11-11T04:00:26;8.00;99.90
43227;DHT22;28839;52.404;9.808;2022-11-11T04:07:20;8.00;99.90
43227;DHT22;28839;52.404;9.808;2022-11-11T04:14:33;7.90;99.90
43227;DHT22;28839;52.404;9.808;2022-11-11T04:21:45;8.00;99.90
43227;DHT22;28839;52.404;9.808;2022-11-11T04:28:38;8.00;99.90
43227;DHT22;28839;52.404;9.808;2022-11-11T04:36:06;7.80;99.90
43227;DHT22;28839;52.404;9.808;2022-11-11T04:43:00;7.60;99.90
43227;DHT22;28839;52.404;9.808;2022-11-11T04:49:54;7.40;99.90
43227;DHT22;28839;52.404;9.808;2022-11-11T04:56:49;7.50;99.90
43227;DHT22;28839;52.404;9.808;2022-11-11T05:03:43;7.80;99.90
43227;DHT22;28839;52.404;9.808;2022-11-11T05:10:37;7.70;99.90
43227;DHT22;28839;52.404;9.808;2022-11-11T05:17:33;7.60;99.90
43227;DHT22;28839;52.404;9.808;2022-11-11T05:24:45;7.60;99.90
43227;DHT22;28839;52.404;9.808;2022-11-11T05:31:57;7.50;99.90
43227;DHT22;28839;52.404;9.808;2022-11-11T05:38:52;7.40;99.90
43227;DHT22;28839;52.404;9.808;2022-11-11T05:45:46;7.10;99.90
43227;DHT22;28839;52.404;9.808;2022-11-11T05:52:46;7.00;99.90
43227;DHT22;28839;52.404;9.808;2022-11-11T05:59:41;7.00;99.90
43227;DHT22;28839;52.404;9.808;2022-11-11T06:06:36;7.00;99.90
43227;DHT22;28839;52.404;9.808;2022-11-11T06:13:30;7.00;99.90
43227;DHT22;28839;52.404;9.808;2022-11-11T06:20:25;7.00;99.90
43227;DHT22;28839;52.404;9.808;2022-11-11T06:27:19;6.90;99.90
43227;DHT22;28839;52.404;9.808;2022-11-11T06:34:13;6.70;99.90
43227;DHT22;28839;52.404;9.808;2022-11-11T06:41:09;6.70;99.90
43227;DHT22;28839;52.404;9.808;2022-11-11T06:48:05;6.60;99.90
43227;DHT22;28839;52.404;9.808;2022-11-11T06:54:59;6.70;99.90
43227;DHT22;28839;52.404;9.808;2022-11-11T07:01:54;7.10;99.90
43227;DHT22;28839;52.404;9.808;2022-11-11T07:08:48;7.30;99.90
43227;DHT22;28839;52.404;9.808;2022-11-11T07:15:42;7.40;99.90
43227;DHT22;28839;52.404;9.808;2022-11-11T07:22:38;7.50;99.90
43227;DHT22;28839;52.404;9.808;2022-11-11T07:29:32;8.00;99.90
43227;DHT22;28839;52.404;9.808;2022-11-11T07:36:26;8.40;99.90
43227;DHT22;28839;52.404;9.808;2022-11-11T07:43:21;8.80;99.90
43227;DHT22;28839;52.404;9.808;2022-11-11T07:50:16;8.90;99.90
43227;DHT22;28839;52.404;9.808;2022-11-11T07:57:10;9.20;99.90
43227;DHT22;28839;52.404;9.808;2022-11-11T08:04:06;9.50;99.90
43227;DHT22;28839;52.404;9.808;2022-11-11T08:11:00;9.70;99.90
43227;DHT22;28839;52.404;9.808;2022-11-11T08:17:54;10.00;99.90
43227;DHT22;28839;52.404;9.808;2022-11-11T08:24:49;10.10;99.90
43227;DHT22;28839;52.404;9.808;2022-11-11T08:31:43;10.50;99.90
43227;DHT22;28839;52.404;9.808;2022-11-11T08:38:37;10.70;99.90
43227;DHT22;28839;52.404;9.808;2022-11-11T08:45:32;10.90;99.90
43227;DHT22;28839;52.404;9.808;2022-11-11T08:52:27;11.10;99.90
43227;DHT22;28839;52.404;9.808;2022-11-11T08:59:21;11.30;99.90
43227;DHT22;28839;52.404;9.808;2022-11-11T09:06:17;11.30;99.90
43227;DHT22;28839;52.404;9.808;2022-11-11T09:13:11;11.50;99.90
43227;DHT22;28839;52.404;9.808;2022-11-11T09:20:09;11.80;99.90
43227;DHT22;28839;52.404;9.808;2022-11-11T09:27:04;11.60;99.90
43227;DHT22;28839;52.404;9.808;2022-11-11T09:33:58;11.80;99.90
43227;DHT22;28839;52.404;9.808;2022-11-11T09:41:03;11.90;99.90
43227;DHT22;28839;52.404;9.808;2022-11-11T09:48:07;12.10;99.90
43227;DHT22;28839;52.404;9.808;2022-11-11T09:55:14;12.50;99.90
43227;DHT22;28839;52.404;9.808;2022-11-11T10:02:17;12.70;99.90
43227;DHT22;28839;52.404;9.808;2022-11-11T10:09:18;13.00;99.90
43227;DHT22;28839;52.404;9.808;2022-11-11T10:16:20;13.30;99.90
43227;DHT22;28839;52.404;9.808;2022-11-11T10:23:16;13.60;99.90
43227;DHT22;28839;52.404;9.808;2022-11-11T10:30:17;13.70;99.90
43227;DHT22;28839;52.404;9.808;2022-11-11T10:37:17;14.00;99.90
43227;DHT22;28839;52.404;9.808;2022-11-11T10:44:19;14.10;99.90
43227;DHT22;28839;52.404;9.808;2022-11-11T10:51:15;14.10;99.90
43227;DHT22;28839;52.404;9.808;2022-11-11T10:58:15;14.10;99.90
43227;DHT22;28839;52.404;9.808;2022-11-11T11:05:14;14.30;99.90
43227;DHT22;28839;52.404;9.808;2022-11-11T11:12:14;14.30;99.90
43227;DHT22;28839;52.404;9.808;2022-11-11T11:19:20;14.50;99.90
43227;DHT22;28839;52.404;9.808;2022-11-11T11:26:14;14.80;99.90
43227;DHT22;28839;52.404;9.808;2022-11-11T11:33:09;14.90;99.90
43227;DHT22;28839;52.404;9.808;2022-11-11T11:40:05;15.00;99.90
43227;DHT22;28839;52.404;9.808;2022-11-11T11:47:12;15.20;99.90
43227;DHT22;28839;52.404;9.808;2022-11-11T11:54:21;15.10;99.90
43227;DHT22;28839;52.404;9.808;2022-11-11T12:01:20;15.30;99.90
43227;DHT22;28839;52.404;9.808;2022-11-11T12:08:25;15.30;99.90
43227;DHT22;28839;52.404;9.808;2022-11-11T12:15:32;15.50;99.90
43227;DHT22;28839;52.404;9.808;2022-11-11T12:22:45;15.40;99.90
43227;DHT22;28839;52.404;9.808;2022-11-11T12:29:53;15.60;99.90
43227;DHT22;28839;52.404;9.808;2022-11-11T12:36:57;15.70;99.90
43227;DHT22;28839;52.404;9.808;2022-11-11T12:43:58;15.80;99.90
43227;DHT22;28839;52.404;9.808;2022-11-11T12:51:00;15.80;99.90
43227;DHT22;28839;52.404;9.808;2022-11-11T12:58:13;15.90;99.90
43227;DHT22;28839;52.404;9.808;2022-11-11T13:05:12;15.90;99.90
43227;DHT22;28839;52.404;9.808;2022-11-11T13:12:10;16.00;99.90
43227;DHT22;28839;52.404;9.808;2022-11-11T13:19:15;16.00;99.90
43227;DHT22;28839;52.404;9.808;2022-11-11T13:26:22;16.00;99.90
43227;DHT22;28839;52.404;9.808;2022-11-11T13:33:18;16.00;99.90
43227;DHT22;28839;52.404;9.808;2022-11-11T13:40:33;16.10;99.90
43227;DHT22;28839;52.404;9.808;2022-11-11T13:47:33;16.20;99.90
43227;DHT22;28839;52.404;9.808;2022-11-11T13:54:29;16.20;99.90
43227;DHT22;28839;52.404;9.808;2022-11-11T14:01:32;16.20;99.90
43227;DHT22;28839;52.404;9.808;2022-11-11T14:08:52;16.00;99.90
43227;DHT22;28839;52.404;9.808;2022-11-11T14:15:47;15.70;99.90
43227;DHT22;28839;52.404;9.808;2022-11-11T14:22:43;15.70;99.90
43227;DHT22;28839;52.404;9.808;2022-11-11T14:29:46;15.50;99.90
43227;DHT22;28839;52.404;9.808;2022-11-11T14:36:43;15.30;99.90
43227;DHT22;28839;52.404;9.808;2022-11-11T14:43:40;15.00;99.90
43227;DHT22;28839;52.404;9.808;2022-11-11T14:50:42;15.10;99.90
43227;DHT22;28839;52.404;9.808;2022-11-11T14:57:38;14.80;99.90
43227;DHT22;28839;52.404;9.808;2022-11-11T15:04:40;14.50;99.90
43227;DHT22;28839;52.404;9.808;2022-11-11T15:11:37;14.20;99.90
43227;DHT22;28839;52.404;9.808;2022-11-11T15:19:00;14.10;99.90
43227;DHT22;28839;52.404;9.808;2022-11-11T15:26:05;13.80;99.90
43227;DHT22;28839;52.404;9.808;2022-11-11T15:33:07;13.60;99.90
43227;DHT22;28839;52.404;9.808;2022-11-11T15:40:03;13.40;99.90
43227;DHT22;28839;52.404;9.808;2022-11-11T15:47:00;13.10;99.90
43227;DHT22;28839;52.404;9.808;2022-11-11T15:54:07;12.90;99.90
43227;DHT22;28839;52.404;9.808;2022-11-11T16:01:04;12.70;99.90
43227;DHT22;28839;52.404;9.808;2022-11-11T16:08:03;12.50;99.90
43227;DHT22;28839;52.404;9.808;2022-11-11T16:15:00;12.10;99.90
43227;DHT22;28839;52.404;9.808;2022-11-11T16:22:02;12.00;99.90
43227;DHT22;28839;52.404;9.808;2022-11-11T16:28:59;11.90;99.90
43227;DHT22;28839;52.404;9.808;2022-11-11T16:35:53;11.60;99.90
43227;DHT22;28839;52.404;9.808;2022-11-11T16:43:17;11.60;99.90
43227;DHT22;28839;52.404;9.808;2022-11-11T16:50:16;11.40;99.90
43227;DHT22;28839;52.404;9.808;2022-11-11T16:57:15;11.40;99.90
43227;DHT22;28839;52.404;9.808;2022-11-11T17:04:10;11.10;99.90
43227;DHT22;28839;52.404;9.808;2022-11-11T17:11:07;10.80;99.90
43227;DHT22;28839;52.404;9.808;2022-11-11T17:18:01;10.60;99.90
43227;DHT22;28839;52.404;9.808;2022-11-11T17:24:55;10.30;99.90
43227;DHT22;28839;52.404;9.808;2022-11-11T17:31:50;10.20;99.90
43227;DHT22;28839;52.404;9.808;2022-11-11T17:38:44;10.00;99.90
43227;DHT22;28839;52.404;9.808;2022-11-11T17:45:38;9.80;99.90
43227;DHT22;28839;52.404;9.808;2022-11-11T17:52:33;9.60;99.90
43227;DHT22;28839;52.404;9.808;2022-11-11T17:59:27;9.70;99.90
43227;DHT22;28839;52.404;9.808;2022-11-11T18:06:22;10.10;99.90
43227;DHT22;28839;52.404;9.808;2022-11-11T18:13:19;9.90;99.90
43227;DHT22;28839;52.404;9.808;2022-11-11T18:20:13;10.10;99.90
43227;DHT22;28839;52.404;9.808;2022-11-11T18:27:07;9.90;99.90
43227;DHT22;28839;52.404;9.808;2022-11-11T18:34:04;10.20;99.90
43227;DHT22;28839;52.404;9.808;2022-11-11T18:41:02;10.50;99.90
43227;DHT22;28839;52.404;9.808;2022-11-11T18:47:56;10.30;99.90
43227;DHT22;28839;52.404;9.808;2022-11-11T18:54:51;10.30;99.90
43227;DHT22;28839;52.404;9.808;2022-11-11T19:01:45;10.20;99.90
43227;DHT22;28839;52.404;9.808;2022-11-11T19:08:39;10.00;99.90
43227;DHT22;28839;52.404;9.808;2022-11-11T19:15:34;9.90;99.90
43227;DHT22;28839;52.404;9.808;2022-11-11T19:22:28;9.90;99.90
43227;DHT22;28839;52.404;9.808;2022-11-11T19:29:22;9.90;99.90
43227;DHT22;28839;52.404;9.808;2022-11-11T19:36:18;9.80;99.90
43227;DHT22;28839;52.404;9.808;2022-11-11T19:43:12;9.50;99.90
43227;DHT22;28839;52.404;9.808;2022-11-11T19:50:07;9.50;99.90
43227;DHT22;28839;52.404;9.808;2022-11-11T19:57:02;9.40;99.90
43227;DHT22;28839;52.404;9.808;2022-11-11T20:03:57;9.10;99.90
43227;DHT22;28839;52.404;9.808;2022-11-11T20:10:51;8.90;99.90
43227;DHT22;28839;52.404;9.808;2022-11-11T20:17:46;8.70;99.90
43227;DHT22;28839;52.404;9.808;2022-11-11T20:24:40;8.50;99.90
43227;DHT22;28839;52.404;9.808;2022-11-11T20:31:34;8.40;99.90
43227;DHT22;28839;52.404;9.808;2022-11-11T20:38:30;8.20;99.90
43227;DHT22;28839;52.404;9.808;2022-11-11T20:45:24;8.10;99.90
43227;DHT22;28839;52.404;9.808;2022-11-11T20:52:18;8.00;99.90
43227;DHT22;28839;52.404;9.808;2022-11-11T20:59:13;7.80;99.90
43227;DHT22;28839;52.404;9.808;2022-11-11T21:06:08;7.80;99.90
43227;DHT22;28839;52.404;9.808;2022-11-11T21:13:03;7.80;99.90
43227;DHT22;28839;52.404;9.808;2022-11-11T21:19:58;7.70;99.90
43227;DHT22;28839;52.404;9.808;2022-11-11T21:26:52;7.50;99.90
43227;DHT22;28839;52.404;9.808;2022-11-11T21:33:48;7.30;99.90
43227;DHT22;28839;52.404;9.808;2022-11-11T21:40:47;7.20;99.90
43227;DHT22;28839;52.404;9.808;2022-11-11T21:47:40;7.10;99.90
43227;DHT22;28839;52.404;9.808;2022-11-11T21:54:34;7.20;99.90
43227;DHT22;28839;52.404;9.808;2022-11-11T22:01:32;7.00;99.90
43227;DHT22;28839;52.404;9.808;2022-11-11T22:08:26;6.90;99.90
43227;DHT22;28839;52.404;9.808;2022-11-11T22:15:20;7.00;99.90
43227;DHT22;28839;52.404;9.808;2022-11-11T22:22:15;7.00;99.90
43227;DHT22;28839;52.404;9.808;2022-11-11T22:29:10;7.00;99.90
43227;DHT22;28839;52.404;9.808;2022-11-11T22:36:06;7.20;99.90
43227;DHT22;28839;52.404;9.808;2022-11-11T22:43:01;7.10;99.90
43227;DHT22;28839;52.404;9.808;2022-11-11T22:49:55;7.20;99.90
43227;DHT22;28839;52.404;9.808;2022-11-11T22:56:49;7.10;99.90
43227;DHT22;28839;52.404;9.808;2022-11-11T23:03:46;7.10;99.90
43227;DHT22;28839;52.404;9.808;2022-11-11T23:10:41;7.00;99.90
43227;DHT22;28839;52.404;9.808;2022-11-11T23:17:34;6.90;99.90
43227;DHT22;28839;52.404;9.808;2022-11-11T23:24:30;7.00;99.90
43227;DHT22;28839;52.404;9.808;2022-11-11T23:31:26;7.10;99.90
43227;DHT22;28839;52.404;9.808;2022-11-11T23:38:20;7.00;99.90
43227;DHT22;28839;52.404;9.808;2022-11-11T23:45:15;6.80;99.90
43227;DHT22;28839;52.404;9.808;2022-11-11T23:52:09;6.80;99.90
43227;DHT22;28839;52.404;9.808;2022-11-11T23:59:03;6.70;99.90
